Time;durP1;ratioP1;P1;durP2;ratioP2;P2;SDS_P1;SDS_P2;PMS_P1;PMS_P2;Temp;Humidity;BMP_temperature;BMP_pressure;BME280_temperature;BME280_humidity;BME280_pressure;Samples;Min_cycle;Max_cycle;Signal;HPM_P1;HPM_P2
2022/10/14 00:00:39;;;;;;;10.60;3.10;;;;;;;;;;4994926;28;20517;-28
2022/10/14 00:03:06;;;;;;;11.93;4.18;;;;;;;;;;4994648;28;20530;-28
2022/10/14 00:05:32;;;;;;;8.45;2.55;;;;;;;;;;4994840;28;20035;-28
2022/10/14 00:07:58;;;;;;;9.48;3.25;;;;;;;;;;4994912;28;20023;-28
2022/10/14 00:10:24;;;;;;;8.13;2.88;;;;;;;;;;4995133;28;20053;-26
2022/10/14 00:12:51;;;;;;;10.30;2.85;;;;;;;;;;4994731;28;20023;-29
2022/10/14 00:15:17;;;;;;;14.05;2.92;;;;;;;;;;4994782;28;20459;-27
2022/10/14 00:17:43;;;;;;;12.23;2.97;;;;;;;;;;4998577;28;20359;-26
2022/10/14 00:20:10;;;;;;;11.63;3.10;;;;;;;;;;4998852;28;20069;-27
2022/10/14 00:22:36;;;;;;;11.68;3.47;;;;;;;;;;4998740;28;20034;-26
2022/10/14 00:25:02;;;;;;;8.40;3.05;;;;;;;;;;4999035;28;20030;-26
2022/10/14 00:27:28;;;;;;;6.35;2.50;;;;;;;;;;4998426;28;20468;-26
2022/10/14 00:29:54;;;;;;;9.07;3.45;;;;;;;;;;4998385;28;20109;-26
2022/10/14 00:32:20;;;;;;;7.78;3.30;;;;;;;;;;4998233;28;20499;-27
2022/10/14 00:34:47;;;;;;;7.75;3.20;;;;;;;;;;4998644;28;20356;-27
2022/10/14 00:37:13;;;;;;;10.18;3.75;;;;;;;;;;4998297;28;20037;-27
2022/10/14 00:39:39;;;;;;;12.52;2.85;;;;;;;;;;4998258;28;20110;-27
2022/10/14 00:42:05;;;;;;;12.65;3.97;;;;;;;;;;4998147;28;20358;-27
2022/10/14 00:44:31;;;;;;;8.30;2.58;;;;;;;;;;4998419;28;20455;-27
2022/10/14 00:46:57;;;;;;;9.63;2.78;;;;;;;;;;4998082;28;20042;-27
2022/10/14 00:49:25;;;;;;;13.90;2.60;;;;;;;;;;4998090;28;20066;-27
2022/10/14 00:51:54;;;;;;;7.20;3.72;;;;;;;;;;4998192;28;20030;-27
2022/10/14 00:54:22;;;;;;;18.75;4.10;;;;;;;;;;4998008;28;20363;-27
2022/10/14 00:56:49;;;;;;;6.35;3.33;;;;;;;;;;4997939;28;20037;-27
2022/10/14 00:59:15;;;;;;;9.35;2.53;;;;;;;;;;4998582;28;20436;-27
2022/10/14 01:01:42;;;;;;;8.70;2.83;;;;;;;;;;4997767;28;20042;-26
2022/10/14 01:04:08;;;;;;;8.20;3.22;;;;;;;;;;4980446;28;20061;-27
2022/10/14 01:06:46;;;;;;;7.07;2.40;;;;;;;;;;4997637;28;20030;-27
2022/10/14 01:09:15;;;;;;;9.25;3.03;;;;;;;;;;4997698;28;20347;-27
2022/10/14 01:12:00;;;;;;;8.48;3.15;;;;;;;;;;4997657;28;20398;-26
2022/10/14 01:14:32;;;;;;;7.32;2.65;;;;;;;;;;4997641;28;20054;-27
2022/10/14 01:17:16;;;;;;;7.93;2.80;;;;;;;;;;4997549;28;20037;-26
2022/10/14 01:20:01;;;;;;;9.27;2.70;;;;;;;;;;4997780;28;20418;-26
2022/10/14 01:22:34;;;;;;;15.70;3.03;;;;;;;;;;4997634;28;20041;-26
2022/10/14 01:25:00;;;;;;;9.52;3.58;;;;;;;;;;4997675;28;20041;-27
2022/10/14 01:27:27;;;;;;;6.78;2.90;;;;;;;;;;4996509;28;20422;-27
2022/10/14 01:29:56;;;;;;;5.88;2.88;;;;;;;;;;4997253;28;20419;-26
2022/10/14 01:32:29;;;;;;;8.48;3.30;;;;;;;;;;4997229;28;20030;-27
2022/10/14 01:34:58;;;;;;;7.57;3.40;;;;;;;;;;4980306;28;20030;-27
2022/10/14 01:37:27;;;;;;;7.43;2.90;;;;;;;;;;4980029;28;20053;-26
2022/10/14 01:39:56;;;;;;;5.03;2.60;;;;;;;;;;4997362;28;20031;-27
2022/10/14 01:42:25;;;;;;;11.27;2.35;;;;;;;;;;4997015;28;20061;-27
2022/10/14 01:44:53;;;;;;;9.27;2.85;;;;;;;;;;4996970;28;20042;-27
2022/10/14 01:47:21;;;;;;;7.78;2.63;;;;;;;;;;4997188;28;20026;-27
2022/10/14 01:49:51;;;;;;;6.18;3.20;;;;;;;;;;4996982;28;20038;-27
2022/10/14 01:52:21;;;;;;;10.63;3.10;;;;;;;;;;4997157;28;20046;-24
2022/10/14 01:54:48;;;;;;;7.95;2.40;;;;;;;;;;4996807;28;20033;-23
2022/10/14 01:57:16;;;;;;;13.18;2.92;;;;;;;;;;4997055;28;20030;-23
2022/10/14 01:59:43;;;;;;;5.32;2.50;;;;;;;;;;4997026;28;20053;-24
2022/10/14 02:02:12;;;;;;;7.32;2.45;;;;;;;;;;4996679;28;20359;-23
2022/10/14 02:04:38;;;;;;;10.45;2.70;;;;;;;;;;4996951;28;20079;-24
2022/10/14 02:07:40;;;;;;;6.70;2.80;;;;;;;;;;4996515;28;20022;-23
2022/10/14 02:10:18;;;;;;;3.80;2.30;;;;;;;;;;4899718;29;20113;-23
2022/10/14 02:12:53;;;;;;;5.35;2.58;;;;;;;;;;4985358;28;20053;-24
2022/10/14 02:15:25;;;;;;;8.52;2.67;;;;;;;;;;4996473;28;20108;-23
2022/10/14 02:18:05;;;;;;;9.25;2.72;;;;;;;;;;4996730;28;20361;-23
2022/10/14 02:20:34;;;;;;;8.20;3.17;;;;;;;;;;4996651;28;20045;-26
2022/10/14 02:23:11;;;;;;;7.93;2.28;;;;;;;;;;4996244;28;20360;-24
2022/10/14 02:25:39;;;;;;;8.25;2.85;;;;;;;;;;4996503;28;20069;-23
2022/10/14 02:28:07;;;;;;;6.10;2.42;;;;;;;;;;4996202;28;20058;-26
2022/10/14 02:30:36;;;;;;;10.07;4.10;;;;;;;;;;4996175;28;20113;-24
2022/10/14 02:33:03;;;;;;;8.88;2.97;;;;;;;;;;4996055;28;20034;-23
2022/10/14 02:35:30;;;;;;;6.18;2.80;;;;;;;;;;4996406;28;20026;-23
2022/10/14 02:37:57;;;;;;;6.78;2.75;;;;;;;;;;4996608;28;20022;-24
2022/10/14 02:40:28;;;;;;;5.90;2.75;;;;;;;;;;4995883;28;20033;-23
2022/10/14 02:42:54;;;;;;;5.57;3.15;;;;;;;;;;4996076;28;20036;-23
2022/10/14 02:45:20;;;;;;;11.02;5.70;;;;;;;;;;4995968;28;20402;-24
2022/10/14 02:47:46;;;;;;;9.02;2.22;;;;;;;;;;4995801;28;20030;-24
2022/10/14 02:50:12;;;;;;;5.95;2.35;;;;;;;;;;4996097;28;20363;-25
2022/10/14 02:52:39;;;;;;;6.57;2.85;;;;;;;;;;4995988;28;20033;-23
2022/10/14 02:55:05;;;;;;;3.88;2.30;;;;;;;;;;4996318;28;20344;-27
2022/10/14 02:57:31;;;;;;;6.97;2.83;;;;;;;;;;4995670;28;20038;-25
2022/10/14 02:59:57;;;;;;;9.05;2.38;;;;;;;;;;4995926;28;20038;-24
2022/10/14 03:02:23;;;;;;;4.53;2.28;;;;;;;;;;4995615;28;20037;-24
2022/10/14 03:04:50;;;;;;;12.05;2.67;;;;;;;;;;4995642;28;20088;-23
2022/10/14 03:07:16;;;;;;;12.10;3.63;;;;;;;;;;4995747;28;20042;-23
2022/10/14 03:09:42;;;;;;;8.48;2.50;;;;;;;;;;4995496;28;20475;-23
2022/10/14 03:12:08;;;;;;;5.47;1.80;;;;;;;;;;4995378;28;20034;-23
2022/10/14 03:14:34;;;;;;;8.50;2.40;;;;;;;;;;4995695;28;20069;-23
2022/10/14 03:17:00;;;;;;;6.10;2.33;;;;;;;;;;4995676;28;20026;-25
2022/10/14 03:19:26;;;;;;;5.43;2.72;;;;;;;;;;4995665;28;20042;-24
2022/10/14 03:21:52;;;;;;;6.38;2.42;;;;;;;;;;4996051;28;20023;-23
2022/10/14 03:24:18;;;;;;;6.38;3.22;;;;;;;;;;4995604;28;20030;-25
2022/10/14 03:26:45;;;;;;;8.20;4.25;;;;;;;;;;4995159;28;20062;-23
2022/10/14 03:29:11;;;;;;;2.85;2.22;;;;;;;;;;4995228;28;20107;-26
2022/10/14 03:31:37;;;;;;;6.82;2.80;;;;;;;;;;4995260;28;20459;-24
2022/10/14 03:34:03;;;;;;;7.60;1.90;;;;;;;;;;4995375;28;20022;-23
2022/10/14 03:36:29;;;;;;;8.52;2.38;;;;;;;;;;4995492;28;20111;-24
2022/10/14 03:38:55;;;;;;;6.85;2.85;;;;;;;;;;4995147;28;20030;-24
2022/10/14 03:41:21;;;;;;;5.43;3.67;;;;;;;;;;4995331;28;20081;-24
2022/10/14 03:43:47;;;;;;;10.88;2.58;;;;;;;;;;4995038;28;20396;-24
2022/10/14 03:46:13;;;;;;;9.38;2.60;;;;;;;;;;4995257;28;20030;-26
2022/10/14 03:48:40;;;;;;;9.90;2.88;;;;;;;;;;4995301;28;20022;-24
2022/10/14 03:51:06;;;;;;;6.63;2.17;;;;;;;;;;4996037;28;20499;-23
2022/10/14 03:53:32;;;;;;;2.78;2.08;;;;;;;;;;4998899;28;20117;-25
2022/10/14 03:55:58;;;;;;;6.05;1.90;;;;;;;;;;4999270;28;20022;-23
2022/10/14 03:58:24;;;;;;;6.35;2.22;;;;;;;;;;4998977;28;20105;-23
2022/10/14 04:00:50;;;;;;;5.10;2.00;;;;;;;;;;4998875;28;20076;-23
2022/10/14 04:03:16;;;;;;;6.82;2.55;;;;;;;;;;4998547;28;20111;-24
2022/10/14 04:05:42;;;;;;;10.60;3.08;;;;;;;;;;4998609;28;20486;-24
2022/10/14 04:08:09;;;;;;;8.48;2.75;;;;;;;;;;4998752;28;20018;-26
2022/10/14 04:10:35;;;;;;;4.18;2.22;;;;;;;;;;4999825;28;20385;-23
2022/10/14 04:13:01;;;;;;;8.27;2.78;;;;;;;;;;4998774;28;20030;-26
2022/10/14 04:15:27;;;;;;;5.55;3.15;;;;;;;;;;4998991;28;20023;-23
2022/10/14 04:17:54;;;;;;;5.78;2.17;;;;;;;;;;4998946;28;20031;-25
2022/10/14 04:20:20;;;;;;;7.68;2.15;;;;;;;;;;4998909;28;20153;-24
2022/10/14 04:22:46;;;;;;;7.57;3.42;;;;;;;;;;4998481;28;20105;-23
2022/10/14 04:25:12;;;;;;;5.63;2.03;;;;;;;;;;4998774;28;20026;-26
2022/10/14 04:27:38;;;;;;;4.03;2.38;;;;;;;;;;4998450;28;20165;-24
2022/10/14 04:30:05;;;;;;;7.82;2.40;;;;;;;;;;4998491;28;20447;-23
2022/10/14 04:32:31;;;;;;;6.57;2.28;;;;;;;;;;4998713;28;20031;-23
2022/10/14 04:34:57;;;;;;;6.47;3.30;;;;;;;;;;4998306;28;20049;-26
2022/10/14 04:37:23;;;;;;;6.70;2.25;;;;;;;;;;4998236;28;20033;-24
2022/10/14 04:39:49;;;;;;;4.15;2.13;;;;;;;;;;4998280;28;20034;-23
2022/10/14 04:42:16;;;;;;;6.43;2.80;;;;;;;;;;4998407;28;20032;-26
2022/10/14 04:44:42;;;;;;;5.35;2.58;;;;;;;;;;4998172;28;20104;-26
2022/10/14 04:47:08;;;;;;;5.57;2.08;;;;;;;;;;4998384;28;20118;-24
2022/10/14 04:49:34;;;;;;;5.32;2.05;;;;;;;;;;4998080;28;20061;-27
2022/10/14 04:52:00;;;;;;;5.30;2.28;;;;;;;;;;4998186;28;20065;-23
2022/10/14 04:54:26;;;;;;;8.00;2.17;;;;;;;;;;4998220;28;20035;-25
2022/10/14 04:56:52;;;;;;;6.80;2.00;;;;;;;;;;4997792;28;20041;-24
2022/10/14 04:59:19;;;;;;;29.25;3.00;;;;;;;;;;4997860;28;20026;-24
2022/10/14 05:01:45;;;;;;;7.15;2.30;;;;;;;;;;4997736;28;20439;-24
2022/10/14 05:04:11;;;;;;;6.38;2.75;;;;;;;;;;4997443;28;20065;-23
2022/10/14 05:06:37;;;;;;;4.85;2.20;;;;;;;;;;4997565;28;20539;-23
2022/10/14 05:09:04;;;;;;;8.40;2.55;;;;;;;;;;4997687;28;20053;-23
2022/10/14 05:11:30;;;;;;;7.80;3.38;;;;;;;;;;4997571;28;20026;-24
2022/10/14 05:13:56;;;;;;;13.35;3.08;;;;;;;;;;4997434;28;20074;-23
2022/10/14 05:16:22;;;;;;;10.88;3.10;;;;;;;;;;4997443;28;20463;-27
2022/10/14 05:18:49;;;;;;;9.30;2.30;;;;;;;;;;4997746;28;20037;-24
2022/10/14 05:21:15;;;;;;;10.00;2.10;;;;;;;;;;4997380;28;20045;-23
2022/10/14 05:23:41;;;;;;;9.45;2.53;;;;;;;;;;4997282;28;20033;-24
2022/10/14 05:26:09;;;;;;;8.88;2.00;;;;;;;;;;4997258;28;20117;-25
2022/10/14 05:28:37;;;;;;;9.48;2.47;;;;;;;;;;4997194;28;20038;-23
2022/10/14 05:31:03;;;;;;;12.73;2.75;;;;;;;;;;4997434;28;20061;-23
2022/10/14 05:33:30;;;;;;;9.43;2.53;;;;;;;;;;4997042;28;20082;-26
2022/10/14 05:35:56;;;;;;;12.23;3.40;;;;;;;;;;4997391;28;20054;-24
2022/10/14 05:38:23;;;;;;;5.10;2.50;;;;;;;;;;4997356;28;20045;-23
2022/10/14 05:40:56;;;;;;;8.00;2.25;;;;;;;;;;4997306;28;20034;-24
2022/10/14 05:43:25;;;;;;;4.40;2.38;;;;;;;;;;4996945;28;20109;-24
2022/10/14 05:45:51;;;;;;;10.82;2.50;;;;;;;;;;4996814;28;20041;-25
2022/10/14 05:48:18;;;;;;;16.15;2.90;;;;;;;;;;4996785;28;20459;-23
2022/10/14 05:50:45;;;;;;;5.22;2.50;;;;;;;;;;4996772;28;20081;-23
2022/10/14 05:53:11;;;;;;;8.77;2.50;;;;;;;;;;4996548;28;20022;-26
2022/10/14 05:55:37;;;;;;;7.05;2.38;;;;;;;;;;4996670;28;20026;-24
2022/10/14 05:58:04;;;;;;;8.98;2.65;;;;;;;;;;4996639;28;20396;-25
2022/10/14 06:00:30;;;;;;;12.48;2.40;;;;;;;;;;4996640;28;20034;-23
2022/10/14 06:02:57;;;;;;;9.10;2.55;;;;;;;;;;4996345;28;20054;-24
2022/10/14 06:05:23;;;;;;;8.15;2.72;;;;;;;;;;4996886;28;20034;-25
2022/10/14 06:07:50;;;;;;;9.45;2.08;;;;;;;;;;4997620;28;20027;-23
2022/10/14 06:10:16;;;;;;;15.32;3.05;;;;;;;;;;4996513;28;20506;-25
2022/10/14 06:12:42;;;;;;;11.05;3.15;;;;;;;;;;4996363;28;20413;-23
2022/10/14 06:15:08;;;;;;;10.77;2.78;;;;;;;;;;4995819;28;20096;-23
2022/10/14 06:17:34;;;;;;;10.65;2.95;;;;;;;;;;4996363;28;20026;-24
2022/10/14 06:20:01;;;;;;;9.48;2.60;;;;;;;;;;4996521;28;20034;-23
2022/10/14 06:22:28;;;;;;;10.07;2.70;;;;;;;;;;4996207;28;20113;-23
2022/10/14 06:24:54;;;;;;;14.95;2.90;;;;;;;;;;4996411;28;20045;-24
2022/10/14 06:27:20;;;;;;;16.13;4.82;;;;;;;;;;4996388;28;20030;-24
2022/10/14 06:29:46;;;;;;;13.50;3.15;;;;;;;;;;4996442;28;20105;-23
2022/10/14 06:32:13;;;;;;;14.88;3.45;;;;;;;;;;4996295;28;20380;-23
2022/10/14 06:34:39;;;;;;;13.25;2.88;;;;;;;;;;4995983;28;20023;-23
2022/10/14 06:37:05;;;;;;;10.93;3.30;;;;;;;;;;4995921;28;20034;-22
2022/10/14 06:39:31;;;;;;;15.88;4.18;;;;;;;;;;4996274;28;20033;-23
2022/10/14 06:41:57;;;;;;;14.55;2.63;;;;;;;;;;4995926;28;20029;-25
2022/10/14 06:44:24;;;;;;;18.35;3.63;;;;;;;;;;4996126;28;20034;-23
2022/10/14 06:46:50;;;;;;;12.75;3.55;;;;;;;;;;4995798;28;20069;-23
2022/10/14 06:49:16;;;;;;;18.92;2.95;;;;;;;;;;4996044;28;20105;-23
2022/10/14 06:51:42;;;;;;;15.60;3.20;;;;;;;;;;4996013;28;20018;-23
2022/10/14 06:54:08;;;;;;;10.57;3.00;;;;;;;;;;4995569;28;20053;-23
2022/10/14 06:56:34;;;;;;;9.60;2.60;;;;;;;;;;4978726;28;20415;-23
2022/10/14 06:59:01;;;;;;;20.75;4.35;;;;;;;;;;4995905;28;20030;-24
2022/10/14 07:01:27;;;;;;;13.98;2.53;;;;;;;;;;4995580;28;20069;-24
2022/10/14 07:03:53;;;;;;;17.20;2.53;;;;;;;;;;4995308;28;20046;-23
2022/10/14 07:06:19;;;;;;;9.52;2.60;;;;;;;;;;4995482;28;20045;-25
2022/10/14 07:08:45;;;;;;;14.57;3.45;;;;;;;;;;4995856;28;20045;-23
2022/10/14 07:11:11;;;;;;;19.30;3.05;;;;;;;;;;4995528;28;20030;-24
2022/10/14 07:13:38;;;;;;;11.05;3.58;;;;;;;;;;4995406;28;20030;-23
2022/10/14 07:16:05;;;;;;;10.70;3.85;;;;;;;;;;4995683;28;20034;-26
2022/10/14 07:18:31;;;;;;;13.63;2.22;;;;;;;;;;4995381;28;20026;-29
2022/10/14 07:21:01;;;;;;;16.13;2.58;;;;;;;;;;4995299;28;20096;-23
2022/10/14 07:23:27;;;;;;;22.45;3.50;;;;;;;;;;4995402;28;20054;-24
2022/10/14 07:25:56;;;;;;;10.75;3.58;;;;;;;;;;4994563;28;20105;-26
2022/10/14 07:28:22;;;;;;;25.30;3.28;;;;;;;;;;4996052;28;20105;-26
2022/10/14 07:31:01;;;;;;;17.77;3.80;;;;;;;;;;4995321;28;20092;-24
2022/10/14 07:33:28;;;;;;;18.95;2.78;;;;;;;;;;4995409;28;20351;-27
2022/10/14 07:35:54;;;;;;;17.75;4.13;;;;;;;;;;4995153;28;20383;-25
2022/10/14 07:38:20;;;;;;;11.50;2.30;;;;;;;;;;4995038;28;20062;-23
2022/10/14 07:40:55;;;;;;;17.48;3.70;;;;;;;;;;4995306;28;20352;-24
2022/10/14 07:43:21;;;;;;;13.55;3.17;;;;;;;;;;4995040;28;20019;-25
2022/10/14 07:45:49;;;;;;;15.52;3.65;;;;;;;;;;4995025;28;20105;-23
2022/10/14 07:48:15;;;;;;;19.10;2.88;;;;;;;;;;4995242;28;20364;-24
2022/10/14 07:50:42;;;;;;;20.10;2.38;;;;;;;;;;4995275;28;20173;-22
2022/10/14 07:53:08;;;;;;;8.68;2.20;;;;;;;;;;4995208;28;20030;-24
2022/10/14 07:55:34;;;;;;;18.15;3.30;;;;;;;;;;4995271;28;20030;-24
2022/10/14 07:58:00;;;;;;;14.45;2.85;;;;;;;;;;4994864;28;20027;-24
2022/10/14 08:00:26;;;;;;;8.70;2.35;;;;;;;;;;4995119;28;20063;-23
2022/10/14 08:02:53;;;;;;;16.23;3.80;;;;;;;;;;4994619;28;20108;-23
2022/10/14 08:05:19;;;;;;;12.52;3.13;;;;;;;;;;4994890;28;20030;-23
2022/10/14 08:07:45;;;;;;;17.15;3.47;;;;;;;;;;4994963;28;20105;-22
2022/10/14 08:10:12;;;;;;;18.58;3.35;;;;;;;;;;4994939;28;20101;-22
2022/10/14 08:12:38;;;;;;;15.65;5.13;;;;;;;;;;4994783;28;20054;-22
2022/10/14 08:15:04;;;;;;;18.92;3.42;;;;;;;;;;4995059;28;20030;-23
2022/10/14 08:17:30;;;;;;;18.98;2.63;;;;;;;;;;4994833;28;20097;-23
2022/10/14 08:19:58;;;;;;;17.55;3.03;;;;;;;;;;4994805;28;20022;-24
2022/10/14 08:22:24;;;;;;;23.77;3.53;;;;;;;;;;4994606;28;20084;-23
2022/10/14 08:24:50;;;;;;;7.82;2.50;;;;;;;;;;4994478;28;20071;-24
2022/10/14 08:27:18;;;;;;;21.42;2.97;;;;;;;;;;4994588;28;20105;-26
2022/10/14 08:29:44;;;;;;;13.85;2.92;;;;;;;;;;4994767;28;20110;-42
2022/10/14 08:32:10;;;;;;;10.30;2.95;;;;;;;;;;4994580;28;20026;-30
2022/10/14 08:34:36;;;;;;;8.80;3.08;;;;;;;;;;4994928;28;20035;-26
2022/10/14 08:37:02;;;;;;;18.10;2.83;;;;;;;;;;4995474;28;20366;-26
2022/10/14 08:39:29;;;;;;;21.48;3.08;;;;;;;;;;4998417;28;20038;-22
2022/10/14 08:41:55;;;;;;;13.75;3.33;;;;;;;;;;4998061;28;20093;-23
2022/10/14 08:44:33;;;;;;;11.68;2.88;;;;;;;;;;4997918;28;20063;-24
2022/10/14 08:47:01;;;;;;;15.95;2.90;;;;;;;;;;4998008;28;20044;-24
2022/10/14 08:49:49;;;;;;;10.13;2.58;;;;;;;;;;4998309;28;20050;-21
2022/10/14 08:52:18;;;;;;;13.43;2.38;;;;;;;;;;4998226;28;20388;-22
2022/10/14 08:54:46;;;;;;;13.90;2.85;;;;;;;;;;4997968;28;20034;-23
2022/10/14 08:57:16;;;;;;;14.30;2.63;;;;;;;;;;4998186;28;20041;-22
2022/10/14 08:59:42;;;;;;;11.32;3.17;;;;;;;;;;4997757;28;20113;-25
2022/10/14 09:02:32;;;;;;;10.93;2.38;;;;;;;;;;4997489;28;20030;-22
2022/10/14 09:04:59;;;;;;;21.52;2.95;;;;;;;;;;4985334;28;20479;-23
2022/10/14 09:07:25;;;;;;;31.77;3.88;;;;;;;;;;4997875;28;20096;-21
2022/10/14 09:09:53;;;;;;;19.00;2.80;;;;;;;;;;4997491;28;20123;-22
2022/10/14 09:12:25;;;;;;;18.55;3.58;;;;;;;;;;4997741;28;20022;-25
2022/10/14 09:15:02;;;;;;;18.42;4.22;;;;;;;;;;4997571;28;20263;-25
2022/10/14 09:17:31;;;;;;;18.40;3.67;;;;;;;;;;4997551;28;20100;-24
2022/10/14 09:20:04;;;;;;;21.88;2.70;;;;;;;;;;4998603;28;20089;-24
2022/10/14 09:22:30;;;;;;;14.35;4.47;;;;;;;;;;4997649;28;20121;-24
2022/10/14 09:24:57;;;;;;;11.25;2.45;;;;;;;;;;4997600;28;20030;-24
2022/10/14 09:27:23;;;;;;;16.67;3.53;;;;;;;;;;4997167;28;20037;-24
2022/10/14 09:29:54;;;;;;;10.73;2.67;;;;;;;;;;4981052;28;20038;-27
2022/10/14 09:32:28;;;;;;;17.88;3.05;;;;;;;;;;4997126;28;20027;-27
2022/10/14 09:34:54;;;;;;;17.85;2.63;;;;;;;;;;4997844;28;20037;-27
2022/10/14 09:37:23;;;;;;;10.20;2.53;;;;;;;;;;4996983;28;20022;-26
2022/10/14 09:39:50;;;;;;;16.52;3.60;;;;;;;;;;4996929;28;20033;-24
2022/10/14 09:42:25;;;;;;;19.35;4.03;;;;;;;;;;4996645;28;20038;-26
2022/10/14 09:45:18;;;;;;;20.63;3.28;;;;;;;;;;4997082;28;20030;-25
2022/10/14 09:47:53;;;;;;;13.82;3.35;;;;;;;;;;4992450;28;20440;-26
2022/10/14 09:50:23;;;;;;;18.15;3.13;;;;;;;;;;4995960;28;20030;-24
2022/10/14 09:52:54;;;;;;;12.68;2.65;;;;;;;;;;4996906;28;20019;-23
2022/10/14 09:55:23;;;;;;;18.13;2.60;;;;;;;;;;4996709;28;20030;-25
2022/10/14 09:58:10;;;;;;;18.17;3.83;;;;;;;;;;4996684;28;20037;-22
2022/10/14 10:00:36;;;;;;;8.98;3.25;;;;;;;;;;4996482;28;20037;-23
2022/10/14 10:03:04;;;;;;;16.75;2.65;;;;;;;;;;4996221;28;20125;-21
2022/10/14 10:05:35;;;;;;;10.35;2.70;;;;;;;;;;4996582;28;20467;-23
2022/10/14 10:08:01;;;;;;;11.85;3.78;;;;;;;;;;4996713;28;20030;-22
2022/10/14 10:10:30;;;;;;;17.05;2.83;;;;;;;;;;4996718;28;20026;-22
2022/10/14 10:12:57;;;;;;;31.80;3.65;;;;;;;;;;4996510;28;20026;-21
2022/10/14 10:15:23;;;;;;;24.95;3.33;;;;;;;;;;4979312;28;20030;-23
2022/10/14 10:17:50;;;;;;;22.83;3.17;;;;;;;;;;4996499;28;20026;-22
2022/10/14 10:20:32;;;;;;;17.50;3.53;;;;;;;;;;4996397;28;20035;-25
2022/10/14 10:23:16;;;;;;;15.80;2.80;;;;;;;;;;4996598;28;20037;-22
2022/10/14 10:25:42;;;;;;;23.92;3.50;;;;;;;;;;4996038;28;20037;-23
2022/10/14 10:28:16;;;;;;;16.15;2.58;;;;;;;;;;4996056;28;20419;-21
2022/10/14 10:31:05;;;;;;;17.33;3.05;;;;;;;;;;4996174;28;20034;-22
2022/10/14 10:33:41;;;;;;;14.65;3.28;;;;;;;;;;4983662;28;20042;-21
2022/10/14 10:36:14;;;;;;;17.98;3.22;;;;;;;;;;4978966;28;20034;-22
2022/10/14 10:39:01;;;;;;;9.93;3.28;;;;;;;;;;4978982;28;20042;-21
2022/10/14 10:41:43;;;;;;;19.92;2.65;;;;;;;;;;4996255;28;20367;-21
2022/10/14 10:44:24;;;;;;;18.52;2.95;;;;;;;;;;4995944;28;20058;-25
2022/10/14 10:47:09;;;;;;;14.68;3.28;;;;;;;;;;4995676;28;20042;-24
2022/10/14 10:49:45;;;;;;;19.23;2.50;;;;;;;;;;4995703;28;20033;-22
2022/10/14 10:52:31;;;;;;;8.73;2.72;;;;;;;;;;4995686;28;20097;-22
2022/10/14 10:55:02;;;;;;;11.93;2.47;;;;;;;;;;4995838;28;20023;-23
2022/10/14 10:57:35;;;;;;;21.65;2.55;;;;;;;;;;4995586;28;20109;-22
2022/10/14 11:00:04;;;;;;;21.40;3.10;;;;;;;;;;4995394;28;20034;-26
2022/10/14 11:02:39;;;;;;;14.43;2.97;;;;;;;;;;4995497;28;20076;-22
2022/10/14 11:05:09;;;;;;;12.35;2.70;;;;;;;;;;4995679;28;20030;-25
2022/10/14 11:13:25;;;;;;;17.48;3.00;;;;;;;;;;4995495;28;20065;-22
2022/10/14 11:15:52;;;;;;;11.98;3.38;;;;;;;;;;4995445;28;20034;-24
2022/10/14 11:18:19;;;;;;;19.40;2.97;;;;;;;;;;4978281;28;20026;-22
2022/10/14 11:20:54;;;;;;;13.68;3.83;;;;;;;;;;4978185;28;20093;-25
2022/10/14 11:23:31;;;;;;;11.70;3.05;;;;;;;;;;4995439;28;20026;-22
2022/10/14 11:25:59;;;;;;;19.70;2.88;;;;;;;;;;4995229;28;20447;-22
2022/10/14 11:28:26;;;;;;;15.32;3.30;;;;;;;;;;4995219;28;20392;-24
2022/10/14 11:30:55;;;;;;;19.17;2.72;;;;;;;;;;4995490;28;20356;-23
2022/10/14 11:33:30;;;;;;;19.50;4.15;;;;;;;;;;4978013;28;20060;-23
2022/10/14 11:36:11;;;;;;;25.63;3.10;;;;;;;;;;4995130;28;20460;-23
2022/10/14 11:38:51;;;;;;;27.58;3.72;;;;;;;;;;4995375;28;20033;-22
2022/10/14 11:41:34;;;;;;;17.67;3.38;;;;;;;;;;4995364;28;20426;-22
2022/10/14 11:44:21;;;;;;;10.90;3.72;;;;;;;;;;4995029;28;20019;-22
2022/10/14 11:46:52;;;;;;;22.60;2.78;;;;;;;;;;4994919;28;20030;-22
2022/10/14 11:49:22;;;;;;;16.88;3.20;;;;;;;;;;4995025;28;20023;-27
2022/10/14 11:51:52;;;;;;;12.40;3.17;;;;;;;;;;4994900;28;20026;-23
2022/10/14 11:54:22;;;;;;;24.05;4.90;;;;;;;;;;4995297;28;20419;-25
2022/10/14 11:56:57;;;;;;;12.98;4.57;;;;;;;;;;4994890;28;20030;-22
2022/10/14 11:59:29;;;;;;;11.25;2.90;;;;;;;;;;4995180;28;20367;-23
2022/10/14 12:02:02;;;;;;;21.95;3.30;;;;;;;;;;4995016;28;20038;-23
2022/10/14 12:04:33;;;;;;;18.33;3.58;;;;;;;;;;4994863;28;20066;-23
2022/10/14 12:07:03;;;;;;;19.45;3.55;;;;;;;;;;4994791;28;20448;-25
2022/10/14 12:09:37;;;;;;;28.88;3.40;;;;;;;;;;4995092;28;20018;-22
2022/10/14 12:12:08;;;;;;;18.80;3.30;;;;;;;;;;4995694;28;20038;-25
2022/10/14 12:14:36;;;;;;;26.95;4.03;;;;;;;;;;4998668;28;20027;-22
2022/10/14 12:17:07;;;;;;;22.73;4.22;;;;;;;;;;4998660;28;20359;-23
2022/10/14 12:19:33;;;;;;;19.85;3.97;;;;;;;;;;4998562;28;20029;-23
2022/10/14 12:22:18;;;;;;;16.23;2.95;;;;;;;;;;4998444;28;20038;-23
2022/10/14 12:24:54;;;;;;;26.17;2.95;;;;;;;;;;4998499;28;20034;-24
2022/10/14 12:27:22;;;;;;;25.77;4.20;;;;;;;;;;4998391;28;20451;-22
2022/10/14 12:29:49;;;;;;;29.35;5.85;;;;;;;;;;4998442;28;20022;-22
2022/10/14 12:32:29;;;;;;;19.55;3.83;;;;;;;;;;4998281;28;20359;-22
2022/10/14 12:35:00;;;;;;;22.80;4.75;;;;;;;;;;4998617;28;20041;-23
2022/10/14 12:37:41;;;;;;;13.38;2.95;;;;;;;;;;4998583;28;20109;-24
2022/10/14 12:40:13;;;;;;;30.45;3.30;;;;;;;;;;4998542;28;20041;-22
2022/10/14 12:42:58;;;;;;;16.75;3.10;;;;;;;;;;4998355;28;20356;-23
2022/10/14 12:45:25;;;;;;;28.17;3.95;;;;;;;;;;4998327;28;20090;-22
2022/10/14 12:48:01;;;;;;;21.58;4.55;;;;;;;;;;4998179;28;20037;-23
2022/10/14 12:50:34;;;;;;;16.00;3.22;;;;;;;;;;4998016;28;20467;-22
2022/10/14 12:53:02;;;;;;;29.67;3.85;;;;;;;;;;4997908;28;20038;-22
2022/10/14 12:55:29;;;;;;;18.17;2.92;;;;;;;;;;4998018;28;20027;-23
2022/10/14 12:58:00;;;;;;;30.88;3.35;;;;;;;;;;4998042;28;20030;-22
2022/10/14 13:00:26;;;;;;;;;;;;;;;;;;4981337;28;20045;-22
2022/10/14 13:03:00;;;;;;;29.02;4.55;;;;;;;;;;4997486;28;19913;-22
2022/10/14 13:05:31;;;;;;;19.75;4.00;;;;;;;;;;4997977;28;20022;-25
2022/10/14 13:08:10;;;;;;;22.88;3.92;;;;;;;;;;4998018;28;20030;-24
2022/10/14 13:10:39;;;;;;;17.48;4.63;;;;;;;;;;4997581;28;20066;-25
2022/10/14 13:13:24;;;;;;;31.92;6.50;;;;;;;;;;4997542;28;20018;-22
2022/10/14 13:15:51;;;;;;;23.85;3.47;;;;;;;;;;4997548;28;20034;-22
2022/10/14 13:18:48;;;;;;;19.98;3.78;;;;;;;;;;4997531;28;20452;-22
2022/10/14 13:21:26;;;;;;;25.48;3.92;;;;;;;;;;4997609;28;20037;-22
2022/10/14 13:23:54;;;;;;;23.30;3.08;;;;;;;;;;4997485;28;20026;-23
2022/10/14 13:26:27;;;;;;;31.27;6.40;;;;;;;;;;4997470;28;20053;-23
2022/10/14 13:29:03;;;;;;;28.98;3.38;;;;;;;;;;4997301;28;20443;-22
2022/10/14 13:31:38;;;;;;;26.92;5.13;;;;;;;;;;4997461;28;20026;-23
2022/10/14 13:34:12;;;;;;;46.25;5.50;;;;;;;;;;4997189;28;20367;-22
2022/10/14 13:36:43;;;;;;;20.85;4.05;;;;;;;;;;4997507;28;20031;-24
2022/10/14 13:39:10;;;;;;;24.30;3.95;;;;;;;;;;4997151;28;20061;-22
2022/10/14 13:41:36;;;;;;;17.05;3.92;;;;;;;;;;4997136;28;20097;-25
2022/10/14 13:44:03;;;;;;;20.05;3.85;;;;;;;;;;4997232;28;20022;-22
2022/10/14 13:46:29;;;;;;;15.73;3.00;;;;;;;;;;4997252;28;20034;-22
2022/10/14 13:48:57;;;;;;;24.13;3.60;;;;;;;;;;4997015;28;20027;-23
2022/10/14 13:51:25;;;;;;;22.83;4.45;;;;;;;;;;4997186;28;20351;-22
2022/10/14 13:53:52;;;;;;;18.55;4.45;;;;;;;;;;4997085;28;20030;-23
2022/10/14 13:56:22;;;;;;;34.75;5.07;;;;;;;;;;4997021;28;20034;-24
2022/10/14 13:58:48;;;;;;;43.40;5.00;;;;;;;;;;4997074;28;20030;-28
2022/10/14 14:01:15;;;;;;;27.08;4.22;;;;;;;;;;4996714;28;20035;-24
2022/10/14 14:03:43;;;;;;;23.50;4.07;;;;;;;;;;4996473;28;20062;-26
2022/10/14 14:06:14;;;;;;;30.13;4.40;;;;;;;;;;4996558;28;20045;-26
2022/10/14 14:08:46;;;;;;;25.92;3.85;;;;;;;;;;4996629;28;20023;-23
2022/10/14 14:11:17;;;;;;;24.95;4.53;;;;;;;;;;4996881;28;20411;-23
2022/10/14 14:13:48;;;;;;;33.17;4.30;;;;;;;;;;4996803;28;20026;-23
2022/10/14 14:16:14;;;;;;;;;;;;;;;;;;4997211;28;20438;-23
2022/10/14 14:18:47;;;;;;;30.02;3.97;;;;;;;;;;4996521;28;19905;-30
2022/10/14 14:21:13;;;;;;;24.63;4.65;;;;;;;;;;4996800;28;20038;-25
2022/10/14 14:23:51;;;;;;;31.05;3.83;;;;;;;;;;4996546;28;20444;-36
2022/10/14 14:26:18;;;;;;;21.75;4.93;;;;;;;;;;4996459;28;20414;-25
2022/10/14 14:28:46;;;;;;;25.52;4.13;;;;;;;;;;4996237;28;20097;-26
2022/10/14 14:31:14;;;;;;;24.25;3.40;;;;;;;;;;4996166;28;20031;-27
2022/10/14 14:33:41;;;;;;;14.90;3.65;;;;;;;;;;4996115;28;20026;-23
2022/10/14 14:36:12;;;;;;;16.27;3.50;;;;;;;;;;4995945;28;20058;-25
2022/10/14 14:38:45;;;;;;;15.82;3.25;;;;;;;;;;4996352;28;20039;-23
2022/10/14 14:41:18;;;;;;;20.38;3.67;;;;;;;;;;4996026;28;20364;-25
2022/10/14 14:43:45;;;;;;;22.48;3.60;;;;;;;;;;4995870;28;20022;-23
2022/10/14 14:46:24;;;;;;;17.83;3.60;;;;;;;;;;4996024;28;20105;-25
2022/10/14 14:48:53;;;;;;;22.80;4.90;;;;;;;;;;4995917;28;20030;-25
2022/10/14 14:51:19;;;;;;;17.33;3.28;;;;;;;;;;4996075;28;20403;-24
2022/10/14 14:53:52;;;;;;;23.27;4.55;;;;;;;;;;4995657;28;20026;-25